Time;durP1;ratioP1;P1;durP2;ratioP2;P2;SDS_P1;SDS_P2;PMS_P1;PMS_P2;Temp;Humidity;BMP_temperature;BMP_pressure;BME280_temperature;BME280_humidity;BME280_pressure;Samples;Min_cycle;Max_cycle;Signal;HPM_P1;HPM_P2
2023/03/04 00:00:10;;;;;;;37.00;26.37;;;;;;;3.35;97.13;99604.75;5016898;28;20285;-82
2023/03/04 00:02:38;;;;;;;36.20;25.43;;;;;;;3.17;97.49;99616.59;5033292;28;20222;-81
2023/03/04 00:05:10;;;;;;;38.80;26.43;;;;;;;3.03;98.38;99605.72;5018828;28;20197;-80
2023/03/04 00:07:37;;;;;;;36.47;26.17;;;;;;;2.90;99.69;99609.91;5014439;28;20199;-81
2023/03/04 00:10:06;;;;;;;38.23;26.77;;;;;;;2.96;99.65;99603.94;5017913;28;20190;-80
2023/03/04 00:12:32;;;;;;;42.63;26.93;;;;;;;2.99;100.00;99608.88;5018343;28;20248;-80
2023/03/04 00:15:00;;;;;;;41.70;27.90;;;;;;;2.97;100.00;99611.72;5018063;28;20202;-79
2023/03/04 00:17:28;;;;;;;37.00;27.03;;;;;;;2.94;100.00;99604.09;5017017;28;20194;-79
2023/03/04 00:19:57;;;;;;;40.23;27.90;;;;;;;2.82;100.00;99602.84;5002502;28;20198;-79
2023/03/04 00:22:24;;;;;;;37.77;26.10;;;;;;;2.83;100.00;99598.38;5024037;28;20214;-81
2023/03/04 00:24:51;;;;;;;39.30;27.67;;;;;;;2.76;100.00;99602.69;5016641;28;20198;-80
2023/03/04 00:27:41;;;;;;;37.53;27.00;;;;;;;2.77;100.00;99605.16;5025001;28;20194;-81
2023/03/04 00:30:09;;;;;;;40.23;26.73;;;;;;;2.60;100.00;99601.75;5033730;28;20290;-81
2023/03/04 00:32:36;;;;;;;37.13;26.57;;;;;;;2.66;100.00;99597.56;5015913;28;20662;-80
2023/03/04 00:35:06;;;;;;;39.33;26.93;;;;;;;2.64;100.00;99596.94;5048969;28;20196;-80
2023/03/04 00:37:33;;;;;;;42.10;27.17;;;;;;;2.58;100.00;99595.78;5048174;28;20193;-79
2023/03/04 00:40:03;;;;;;;38.07;26.27;;;;;;;2.44;100.00;99587.72;5052994;28;20192;-80
2023/03/04 00:42:33;;;;;;;37.43;26.07;;;;;;;2.29;100.00;99587.56;5021835;28;20228;-80
2023/03/04 00:45:00;;;;;;;40.83;27.30;;;;;;;2.28;100.00;99585.13;5036386;28;20194;-81
2023/03/04 00:47:27;;;;;;;40.30;26.57;;;;;;;2.23;100.00;99580.34;5045194;28;20190;-81
2023/03/04 00:49:54;;;;;;;38.70;26.90;;;;;;;2.25;100.00;99577.50;5032393;28;20198;-80
2023/03/04 00:52:21;;;;;;;37.13;25.83;;;;;;;2.21;100.00;99575.22;5033742;28;20194;-80
2023/03/04 00:54:49;;;;;;;38.73;26.13;;;;;;;2.24;100.00;99568.75;5032245;28;20198;-81
2023/03/04 00:57:16;;;;;;;36.67;25.73;;;;;;;2.06;100.00;99562.81;5039142;28;20280;-79
2023/03/04 00:59:45;;;;;;;37.50;26.33;;;;;;;2.06;100.00;99555.72;5016317;28;20597;-81
2023/03/04 01:02:11;;;;;;;39.07;26.73;;;;;;;2.01;100.00;99555.41;5038110;28;20674;-79
2023/03/04 01:04:38;;;;;;;37.43;25.90;;;;;;;2.28;100.00;99558.69;5038383;28;20255;-81
2023/03/04 01:07:05;;;;;;;35.83;25.40;;;;;;;2.22;100.00;99549.59;5037204;28;20208;-80
2023/03/04 01:09:36;;;;;;;36.50;25.60;;;;;;;2.28;100.00;99551.59;5034789;28;20178;-79
2023/03/04 01:12:03;;;;;;;36.73;24.53;;;;;;;2.16;100.00;99545.81;5021875;28;20226;-79
2023/03/04 01:14:29;;;;;;;41.63;25.83;;;;;;;2.23;100.00;99543.34;5033833;28;20309;-79
2023/03/04 01:16:56;;;;;;;36.57;25.43;;;;;;;2.21;100.00;99547.94;5039189;28;20190;-80
2023/03/04 01:19:24;;;;;;;36.93;25.53;;;;;;;2.29;100.00;99544.47;5035038;28;20190;-80
2023/03/04 01:21:58;;;;;;;37.07;25.87;;;;;;;2.12;100.00;99547.13;5036386;28;20186;-80
2023/03/04 01:24:28;;;;;;;34.50;24.97;;;;;;;2.07;100.00;99545.97;5033073;28;20217;-80
2023/03/04 01:26:59;;;;;;;36.20;25.40;;;;;;;1.97;100.00;99538.22;5039566;28;20272;-80
2023/03/04 01:29:28;;;;;;;38.03;25.03;;;;;;;2.00;100.00;99537.91;5039592;28;20279;-82
2023/03/04 01:31:58;;;;;;;35.77;24.23;;;;;;;1.96;100.00;99538.41;5021254;28;20222;-80
2023/03/04 01:34:25;;;;;;;35.87;25.53;;;;;;;1.89;100.00;99534.78;5037409;28;20198;-82
2023/03/04 01:36:52;;;;;;;34.87;24.57;;;;;;;2.03;100.00;99531.47;5015841;28;20190;-81
2023/03/04 01:39:22;;;;;;;35.57;24.53;;;;;;;1.93;100.00;99518.44;5032314;28;20256;-81
2023/03/04 01:41:51;;;;;;;34.33;24.33;;;;;;;2.01;100.00;99520.22;5035769;28;20221;-80
2023/03/04 01:44:18;;;;;;;35.30;23.70;;;;;;;1.89;100.00;99508.34;5024728;28;20218;-79
2023/03/04 01:46:55;;;;;;;33.80;23.47;;;;;;;1.85;100.00;99510.50;5031530;28;20650;-79
2023/03/04 01:49:27;;;;;;;34.03;23.57;;;;;;;1.70;100.00;99509.53;5032834;28;20198;-80
2023/03/04 01:51:55;;;;;;;35.33;23.97;;;;;;;1.67;100.00;99508.06;5019063;28;20208;-79
2023/03/04 01:54:22;;;;;;;33.80;23.37;;;;;;;1.54;100.00;99504.25;5015359;28;20204;-80
2023/03/04 01:56:52;;;;;;;32.77;23.87;;;;;;;1.50;100.00;99493.19;5034995;28;20209;-79
2023/03/04 01:59:24;;;;;;;32.90;23.40;;;;;;;1.44;100.00;99485.13;5014854;28;20202;-80
2023/03/04 02:02:02;;;;;;;34.53;22.80;;;;;;;1.57;100.00;99491.56;5031294;28;20193;-81
2023/03/04 02:04:33;;;;;;;33.30;23.13;;;;;;;1.56;100.00;99491.69;5010447;28;20304;-80
2023/03/04 02:07:02;;;;;;;34.90;23.13;;;;;;;1.44;100.00;99483.31;5034230;28;20190;-81
2023/03/04 02:09:30;;;;;;;32.33;23.00;;;;;;;1.43;100.00;99484.28;5036010;28;20213;-79
2023/03/04 02:11:57;;;;;;;35.57;23.23;;;;;;;1.46;100.00;99483.94;5014869;28;20233;-79
2023/03/04 02:14:26;;;;;;;31.43;22.53;;;;;;;1.32;100.00;99477.50;5037673;28;20193;-82
2023/03/04 02:16:57;;;;;;;30.20;21.10;;;;;;;1.36;100.00;99480.63;5039286;28;20276;-81
2023/03/04 02:19:38;;;;;;;34.33;23.37;;;;;;;1.27;100.00;99471.06;5021821;28;20198;-81
2023/03/04 02:22:05;;;;;;;33.60;22.10;;;;;;;1.18;100.00;99466.78;5021763;28;20212;-80
2023/03/04 02:25:06;;;;;;;32.27;22.03;;;;;;;1.29;100.00;99482.31;5046128;28;20197;-80
2023/03/04 02:27:38;;;;;;;30.63;22.43;;;;;;;1.18;100.00;99477.31;5021736;28;20186;-81
2023/03/04 02:30:10;;;;;;;29.93;21.10;;;;;;;1.18;100.00;99472.88;5042015;28;20190;-79
2023/03/04 02:32:38;;;;;;;33.77;21.70;;;;;;;1.20;100.00;99455.09;5021286;28;20198;-80
2023/03/04 02:35:05;;;;;;;27.87;20.83;;;;;;;1.11;100.00;99463.16;5021208;28;20206;-80
2023/03/04 02:37:35;;;;;;;29.60;21.03;;;;;;;1.02;100.00;99449.13;5025912;28;20674;-81
2023/03/04 02:40:13;;;;;;;31.17;21.00;;;;;;;0.96;100.00;99447.13;5038615;28;20718;-80
2023/03/04 02:42:43;;;;;;;28.93;20.70;;;;;;;1.02;100.00;99450.94;5047581;28;20672;-79
2023/03/04 02:45:36;;;;;;;30.30;21.30;;;;;;;0.97;100.00;99458.50;5028889;28;20222;-80
2023/03/04 02:48:07;;;;;;;29.73;20.17;;;;;;;0.92;100.00;99458.16;5037427;28;20206;-80
2023/03/04 02:50:46;;;;;;;29.30;20.23;;;;;;;0.87;100.00;99456.03;5038808;28;20206;-81
2023/03/04 02:53:14;;;;;;;32.47;20.50;;;;;;;0.93;100.00;99446.66;5024758;28;20197;-80
2023/03/04 02:55:52;;;;;;;28.70;19.87;;;;;;;0.80;100.00;99449.72;5023943;28;20220;-80
2023/03/04 02:58:23;;;;;;;27.97;20.03;;;;;;;0.75;100.00;99450.22;5041119;28;20239;-80
2023/03/04 03:00:50;;;;;;;28.80;20.53;;;;;;;0.75;100.00;99446.75;5013358;28;20198;-81
2023/03/04 03:03:17;;;;;;;27.73;20.67;;;;;;;0.67;100.00;99439.66;5040723;28;20686;-81
2023/03/04 03:05:48;;;;;;;28.90;20.33;;;;;;;0.74;100.00;99447.75;5023729;28;20198;-81
2023/03/04 03:08:19;;;;;;;28.83;19.53;;;;;;;0.64;100.00;99440.00;5025252;28;20198;-81
2023/03/04 03:10:46;;;;;;;30.60;21.13;;;;;;;0.62;100.00;99441.13;5021596;28;20314;-79
2023/03/04 03:13:18;;;;;;;29.50;19.73;;;;;;;0.56;100.00;99441.78;5040478;28;20194;-80
2023/03/04 03:15:45;;;;;;;29.90;20.07;;;;;;;0.55;100.00;99438.31;5026720;28;20205;-81
2023/03/04 03:18:14;;;;;;;27.57;20.40;;;;;;;0.52;100.00;99438.63;5041770;28;20213;-79
2023/03/04 03:21:04;;;;;;;29.67;20.40;;;;;;;0.41;100.00;99423.94;5035441;28;20194;-79
2023/03/04 03:23:36;;;;;;;30.70;20.67;;;;;;;0.38;100.00;99429.50;5046715;28;20215;-79
2023/03/04 03:26:08;;;;;;;30.07;20.40;;;;;;;0.32;100.00;99422.25;5019872;28;20197;-79
2023/03/04 03:28:36;;;;;;;28.87;18.90;;;;;;;0.28;100.00;99428.00;5018441;28;20316;-78
2023/03/04 03:31:03;;;;;;;31.53;20.97;;;;;;;0.24;100.00;99422.22;5034083;28;20191;-80
2023/03/04 03:33:36;;;;;;;30.73;21.73;;;;;;;0.20;100.00;99420.06;5033723;28;20200;-80
2023/03/04 03:36:06;;;;;;;31.47;21.60;;;;;;;0.19;100.00;99413.13;5001922;28;20237;-81
2023/03/04 03:38:34;;;;;;;31.07;20.63;;;;;;;0.12;100.00;99406.84;5017500;28;20297;-80
2023/03/04 03:41:01;;;;;;;32.43;21.17;;;;;;;0.07;100.00;99411.75;5033837;28;20273;-79
2023/03/04 03:43:29;;;;;;;32.17;20.57;;;;;;;0.05;100.00;99404.00;5030343;28;20206;-79
2023/03/04 03:45:55;;;;;;;30.70;20.57;;;;;;;0.04;100.00;99397.13;5017097;28;20210;-80
2023/03/04 03:48:27;;;;;;;30.73;20.30;;;;;;;-0.04;100.00;99397.06;5033596;28;20194;-80
2023/03/04 03:50:55;;;;;;;30.13;21.40;;;;;;;-0.05;100.00;99398.06;5016853;28;20301;-80
2023/03/04 03:53:23;;;;;;;32.43;21.37;;;;;;;-0.07;100.00;99390.31;5034532;28;20212;-81
2023/03/04 03:55:49;;;;;;;31.03;21.03;;;;;;;-0.16;100.00;99391.25;5001486;28;20218;-81
2023/03/04 03:58:18;;;;;;;34.47;21.67;;;;;;;-0.23;100.00;99390.22;5017447;28;20198;-80
2023/03/04 04:00:45;;;;;;;31.10;20.97;;;;;;;-0.20;100.00;99378.56;5016875;28;20204;-79
2023/03/04 04:03:14;;;;;;;30.67;20.87;;;;;;;-0.27;100.00;99380.16;5020890;28;20225;-79
2023/03/04 04:05:52;;;;;;;29.60;20.73;;;;;;;-0.32;100.00;99383.25;5033933;28;20532;-80
2023/03/04 04:08:22;;;;;;;29.80;21.40;;;;;;;-0.32;100.00;99383.25;5033579;28;20194;-79
2023/03/04 04:10:50;;;;;;;32.70;22.43;;;;;;;-0.34;100.00;99372.06;5033252;28;20320;-82
2023/03/04 04:13:18;;;;;;;34.00;22.13;;;;;;;-0.36;100.00;99381.94;5034295;28;20623;-79
2023/03/04 04:15:47;;;;;;;33.17;22.20;;;;;;;-0.43;100.00;99377.44;5000666;28;20198;-79
2023/03/04 04:18:14;;;;;;;32.83;23.03;;;;;;;-0.33;100.00;99371.09;5033269;28;20212;-79
2023/03/04 04:20:41;;;;;;;36.40;23.20;;;;;;;-0.46;100.00;99382.03;5017142;28;20193;-80
2023/03/04 04:23:14;;;;;;;32.90;23.00;;;;;;;-0.53;100.00;99373.13;5032919;28;20213;-80
2023/03/04 04:25:40;;;;;;;38.63;25.77;;;;;;;-0.60;100.00;99371.25;5016624;28;20221;-79
2023/03/04 04:28:09;;;;;;;35.33;25.30;;;;;;;-0.65;100.00;99376.97;5016715;28;20189;-81
2023/03/04 04:30:44;;;;;;;36.57;26.30;;;;;;;-0.67;100.00;99368.41;5033709;28;20194;-80
2023/03/04 04:33:13;;;;;;;39.03;26.97;;;;;;;-0.69;100.00;99370.38;5037256;28;20194;-81
2023/03/04 04:35:43;;;;;;;36.63;24.80;;;;;;;-0.69;100.00;99364.28;5033545;28;20194;-81
2023/03/04 04:38:11;;;;;;;35.50;24.40;;;;;;;-0.71;100.00;99366.25;5032197;28;20202;-80
2023/03/04 04:40:41;;;;;;;36.77;24.83;;;;;;;-0.70;100.00;99376.59;5033674;28;20689;-81
2023/03/04 04:43:10;;;;;;;36.40;24.30;;;;;;;-0.71;100.00;99368.88;5035004;28;20252;-79
2023/03/04 04:45:36;;;;;;;37.07;24.40;;;;;;;-0.74;100.00;99372.63;5034519;28;20214;-82
2023/03/04 04:48:09;;;;;;;34.93;23.57;;;;;;;-0.80;100.00;99364.56;5017431;28;20662;-81
2023/03/04 04:50:39;;;;;;;38.80;25.30;;;;;;;-0.80;100.00;99370.63;5035071;28;20190;-80
2023/03/04 04:53:06;;;;;;;38.33;25.57;;;;;;;-0.85;100.00;99358.91;5019268;28;20269;-80
2023/03/04 04:55:33;;;;;;;39.00;24.63;;;;;;;-0.83;100.00;99368.28;5032371;28;20218;-79
2023/03/04 04:58:00;;;;;;;42.23;26.50;;;;;;;-0.86;100.00;99360.72;5017448;28;20190;-79
2023/03/04 05:00:42;;;;;;;;;;;;;;;;;;;;;
2023/03/04 05:03:14;;;;;;;44.20;28.07;;;;;;;-0.84;100.00;99357.94;5033270;28;20327;-79
2023/03/04 05:05:51;;;;;;;38.17;25.53;;;;;;;-0.81;100.00;99355.00;5023079;28;20210;-80
2023/03/04 05:08:20;;;;;;;38.93;25.27;;;;;;;-0.78;100.00;99352.88;5023044;28;20202;-81
2023/03/04 05:10:49;;;;;;;37.53;24.10;;;;;;;-0.87;100.00;99359.06;5039555;28;20242;-81
2023/03/04 05:13:18;;;;;;;40.90;26.97;;;;;;;-0.92;100.00;99351.63;5039213;28;20190;-79
2023/03/04 05:15:47;;;;;;;38.27;25.87;;;;;;;-0.86;100.00;99355.47;5018853;28;20198;-81
2023/03/04 05:18:14;;;;;;;40.10;28.03;;;;;;;-0.86;100.00;99346.75;5020975;28;20202;-79
2023/03/04 05:20:41;;;;;;;48.90;33.07;;;;;;;-0.92;100.00;99351.63;5039355;28;20191;-79
2023/03/04 05:23:10;;;;;;;50.23;34.50;;;;;;;-0.90;100.00;99344.44;5035275;28;20202;-81
2023/03/04 05:25:42;;;;;;;44.37;30.93;;;;;;;-0.92;100.00;99349.00;5034118;28;20210;-79
2023/03/04 05:28:16;;;;;;;37.27;26.63;;;;;;;-0.97;100.00;99350.44;5036552;28;20189;-82
2023/03/04 05:30:46;;;;;;;35.07;24.47;;;;;;;-0.82;100.00;99356.81;5015463;28;20186;-79
2023/03/04 05:33:17;;;;;;;41.03;28.10;;;;;;;-0.88;100.00;99354.78;5032857;28;20194;-80
2023/03/04 05:35:48;;;;;;;63.83;39.97;;;;;;;-0.87;100.00;99340.66;5015333;28;20746;-82
2023/03/04 05:38:17;;;;;;;50.87;32.63;;;;;;;-0.84;100.00;99355.31;5039741;28;20272;-81
2023/03/04 05:40:55;;;;;;;44.57;30.40;;;;;;;-0.82;100.00;99353.34;5020156;28;20212;-79
2023/03/04 05:43:28;;;;;;;78.40;43.73;;;;;;;-0.79;100.00;99353.06;5032566;28;20190;-82
2023/03/04 05:45:57;;;;;;;65.97;40.60;;;;;;;-0.74;100.00;99351.59;5014988;28;20224;-80
2023/03/04 05:48:23;;;;;;;47.40;31.60;;;;;;;-0.68;100.00;99358.03;5031292;28;20227;-80
2023/03/04 05:50:57;;;;;;;35.23;23.70;;;;;;;-0.63;100.00;99358.41;5037589;28;20194;-80
2023/03/04 05:53:24;;;;;;;38.93;25.93;;;;;;;-0.55;100.00;99361.09;5024473;28;20570;-79
2023/03/04 05:55:51;;;;;;;37.13;28.07;;;;;;;-0.55;100.00;99356.66;5043291;28;20198;-80
2023/03/04 05:58:19;;;;;;;41.97;29.67;;;;;;;-0.42;100.00;99358.06;5022843;28;20198;-80
2023/03/04 06:00:46;;;;;;;39.97;26.50;;;;;;;-0.42;100.00;99360.69;5023091;28;20197;-80
2023/03/04 06:03:18;;;;;;;36.63;25.60;;;;;;;-0.38;100.00;99359.38;5039440;28;20218;-80
2023/03/04 06:05:45;;;;;;;35.50;24.80;;;;;;;-0.36;100.00;99357.41;5037824;28;20246;-79
2023/03/04 06:08:12;;;;;;;36.97;24.77;;;;;;;-0.32;100.00;99362.19;5035071;28;20263;-82
2023/03/04 06:10:40;;;;;;;33.67;23.97;;;;;;;-0.28;100.00;99362.72;5014785;28;20222;-81
2023/03/04 06:13:12;;;;;;;34.57;22.77;;;;;;;-0.20;100.00;99368.88;5015555;28;20194;-80
2023/03/04 06:15:53;;;;;;;34.83;24.23;;;;;;;-0.10;100.00;99374.00;5031503;28;20220;-80
2023/03/04 06:18:27;;;;;;;34.93;24.00;;;;;;;0.04;100.00;99373.41;5014559;28;20193;-80
2023/03/04 06:20:58;;;;;;;34.27;22.70;;;;;;;0.07;100.00;99374.88;5032639;28;20186;-81
2023/03/04 06:23:29;;;;;;;36.83;24.13;;;;;;;0.20;100.00;99377.91;5031199;28;20186;-80
2023/03/04 06:25:59;;;;;;;35.63;24.53;;;;;;;0.32;100.00;99374.81;5030893;28;20602;-80
2023/03/04 06:28:55;;;;;;;40.70;28.13;;;;;;;0.56;100.00;99384.56;5014451;28;20228;-79
2023/03/04 06:31:28;;;;;;;38.30;26.93;;;;;;;0.66;100.00;99381.78;5013731;28;20198;-81
2023/03/04 06:33:55;;;;;;;40.47;26.87;;;;;;;0.79;100.00;99387.44;5014933;28;20213;-80
2023/03/04 06:36:22;;;;;;;36.87;26.97;;;;;;;0.84;100.00;99377.22;5014759;28;20204;-79
2023/03/04 06:38:50;;;;;;;37.10;26.13;;;;;;;0.92;100.00;99382.50;5030838;28;20192;-80
2023/03/04 06:41:18;;;;;;;34.73;23.90;;;;;;;1.01;100.00;99381.53;5032727;28;20198;-79
2023/03/04 06:43:48;;;;;;;30.90;22.73;;;;;;;1.03;100.00;99382.16;5030978;28;20531;-79
2023/03/04 06:46:16;;;;;;;32.97;23.60;;;;;;;1.12;100.00;99385.66;5015218;28;20218;-80
2023/03/04 06:48:43;;;;;;;37.17;25.17;;;;;;;1.27;100.00;99376.88;5014290;28;20202;-80
2023/03/04 06:51:13;;;;;;;35.43;24.20;;;;;;;1.42;100.00;99374.41;5031245;28;20186;-80
2023/03/04 06:53:40;;;;;;;33.07;24.33;;;;;;;1.60;100.00;99382.94;5024084;28;20206;-80
2023/03/04 06:56:11;;;;;;;32.83;23.73;;;;;;;1.78;100.00;99374.81;5014428;28;20198;-81
2023/03/04 06:58:38;;;;;;;33.87;24.07;;;;;;;1.94;100.00;99373.94;5030612;28;20297;-79
2023/03/04 07:01:26;;;;;;;33.40;23.23;;;;;;;2.02;100.00;99380.00;5035227;28;20194;-84
2023/03/04 07:03:54;;;;;;;34.70;23.97;;;;;;;2.17;100.00;99380.13;5034904;28;20210;-80
2023/03/04 07:06:27;;;;;;;35.37;24.73;;;;;;;2.34;100.00;99381.69;5019075;28;20210;-82
2023/03/04 07:08:55;;;;;;;33.80;23.77;;;;;;;2.56;100.00;99375.63;5034986;28;20205;-80
2023/03/04 07:11:22;;;;;;;35.33;24.47;;;;;;;2.70;100.00;99382.00;5034704;28;20599;-80
2023/03/04 07:13:53;;;;;;;33.93;24.20;;;;;;;2.86;100.00;99379.22;5021102;28;20202;-81
2023/03/04 07:16:21;;;;;;;34.70;23.73;;;;;;;2.97;100.00;99378.00;5002913;28;20561;-79
2023/03/04 07:18:50;;;;;;;33.70;22.80;;;;;;;3.13;100.00;99377.06;5034396;28;20276;-81
2023/03/04 07:21:17;;;;;;;35.77;23.60;;;;;;;3.17;100.00;99381.81;5033968;28;20190;-80
2023/03/04 07:23:44;;;;;;;31.30;23.13;;;;;;;3.28;100.00;99376.06;5035901;28;20222;-81
2023/03/04 07:26:15;;;;;;;34.13;22.60;;;;;;;3.39;100.00;99378.31;5033516;28;20214;-82
2023/03/04 07:28:43;;;;;;;28.93;21.77;;;;;;;3.50;100.00;99375.19;5032603;28;20195;-81
2023/03/04 07:31:27;;;;;;;32.17;22.13;;;;;;;3.63;100.00;99382.53;5034182;28;20182;-79
2023/03/04 07:33:56;;;;;;;28.30;20.47;;;;;;;3.67;100.00;99378.53;5030732;28;20194;-83
2023/03/04 07:36:33;;;;;;;30.37;21.60;;;;;;;3.77;100.00;99380.91;5034824;28;20201;-80
2023/03/04 07:39:00;;;;;;;29.37;21.73;;;;;;;3.79;100.00;99374.41;5023454;28;20205;-79
2023/03/04 07:41:28;;;;;;;28.93;21.43;;;;;;;3.92;100.00;99376.41;5006365;28;20190;-79
2023/03/04 07:43:58;;;;;;;31.03;22.60;;;;;;;3.95;100.00;99384.03;5020367;28;20223;-81
2023/03/04 07:46:25;;;;;;;31.03;22.87;;;;;;;4.11;100.00;99381.16;5040845;28;20245;-81
2023/03/04 07:48:54;;;;;;;31.83;23.27;;;;;;;4.26;100.00;99383.81;5021037;28;20289;-80
2023/03/04 07:51:23;;;;;;;29.30;22.73;;;;;;;4.40;100.00;99375.00;5002651;28;20290;-84
2023/03/04 07:53:52;;;;;;;34.87;24.67;;;;;;;4.53;100.00;99371.66;5017906;28;20210;-80
2023/03/04 07:56:21;;;;;;;32.23;24.50;;;;;;;4.64;100.00;99371.19;5033964;28;20198;-80
2023/03/04 07:58:49;;;;;;;36.13;24.03;;;;;;;4.67;100.00;99370.81;5002714;28;20195;-83
2023/03/04 08:01:19;;;;;;;33.40;25.10;;;;;;;4.78;100.00;99363.19;5033670;28;20198;-80
2023/03/04 08:03:54;;;;;;;36.47;25.17;;;;;;;4.90;100.00;99368.00;5020277;28;20217;-81
2023/03/04 08:06:22;;;;;;;36.13;26.50;;;;;;;5.03;100.00;99362.81;5033646;28;20214;-82
2023/03/04 08:08:57;;;;;;;36.57;27.17;;;;;;;5.21;100.00;99360.53;5034827;28;20186;-80
2023/03/04 08:11:28;;;;;;;33.93;26.53;;;;;;;5.40;100.00;99359.88;5036960;28;20217;-80
2023/03/04 08:13:55;;;;;;;36.90;26.83;;;;;;;5.51;100.00;99369.13;5002385;28;20202;-81
2023/03/04 08:16:23;;;;;;;48.97;33.30;;;;;;;5.63;100.00;99363.09;5000650;28;20568;-79
2023/03/04 08:18:55;;;;;;;51.13;33.03;;;;;;;5.82;100.00;99361.59;5015048;28;20219;-82
2023/03/04 08:21:24;;;;;;;40.50;29.00;;;;;;;6.07;100.00;99362.75;5019887;28;20200;-80
2023/03/04 08:24:00;;;;;;;38.00;28.17;;;;;;;6.22;100.00;99354.66;5033229;28;20273;-80
2023/03/04 08:26:33;;;;;;;37.10;27.67;;;;;;;6.39;100.00;99342.63;5034193;28;20206;-81
2023/03/04 08:29:02;;;;;;;36.73;26.40;;;;;;;6.61;100.00;99346.00;5016279;28;20202;-79
2023/03/04 08:31:28;;;;;;;37.90;26.27;;;;;;;6.86;100.00;99344.38;5020831;28;20244;-78
2023/03/04 08:34:02;;;;;;;40.77;28.97;;;;;;;7.13;100.00;99353.25;5034699;28;20210;-79
2023/03/04 08:36:43;;;;;;;43.50;30.07;;;;;;;7.29;100.00;99352.84;5021415;28;20724;-80
2023/03/04 08:39:15;;;;;;;37.90;28.77;;;;;;;7.56;100.00;99358.16;5034452;28;20554;-79
2023/03/04 08:41:42;;;;;;;36.53;27.47;;;;;;;7.91;100.00;99344.34;5033160;28;20670;-78
2023/03/04 08:44:14;;;;;;;37.27;27.67;;;;;;;8.19;100.00;99343.25;5040738;28;20197;-81
2023/03/04 08:46:46;;;;;;;38.60;26.43;;;;;;;9.01;100.00;99342.41;5018079;28;20241;-81
2023/03/04 08:49:36;;;;;;;36.10;24.20;;;;;;;9.47;96.91;99324.16;5038293;28;20205;-80
2023/03/04 08:52:08;;;;;;;33.53;23.50;;;;;;;9.87;92.91;99303.19;5036693;28;20290;-79
2023/03/04 08:54:36;;;;;;;36.40;24.37;;;;;;;10.11;89.47;99326.38;5017418;28;20666;-81
2023/03/04 08:57:03;;;;;;;33.90;24.37;;;;;;;10.41;88.49;99320.25;5021857;28;20199;-79
2023/03/04 08:59:36;;;;;;;30.53;23.00;;;;;;;10.68;86.02;99328.78;5016590;28;20197;-81
2023/03/04 09:02:11;;;;;;;30.03;23.27;;;;;;;10.90;85.20;99324.53;5033018;28;20200;-79
2023/03/04 09:04:38;;;;;;;33.27;22.93;;;;;;;11.04;83.28;99320.63;5019142;28;20221;-82
2023/03/04 09:07:04;;;;;;;32.23;23.17;;;;;;;11.13;81.84;99316.53;5035438;28;20208;-81
2023/03/04 09:09:31;;;;;;;28.30;23.07;;;;;;;11.18;81.48;99332.78;5032379;28;20232;-81
2023/03/04 09:12:00;;;;;;;30.73;22.77;;;;;;;11.25;79.30;99317.38;5032255;28;20761;-79
2023/03/04 09:14:40;;;;;;;28.73;21.37;;;;;;;11.29;77.37;99301.66;5038824;28;20210;-84
2023/03/04 09:17:09;;;;;;;30.07;22.47;;;;;;;11.52;76.43;99319.63;5024791;28;20691;-79
2023/03/04 09:19:39;;;;;;;31.80;23.10;;;;;;;11.60;75.89;99314.72;5037774;28;20218;-79
2023/03/04 09:22:10;;;;;;;32.40;23.10;;;;;;;11.59;75.68;99314.94;5037317;28;20185;-79
2023/03/04 09:24:47;;;;;;;27.80;22.33;;;;;;;11.52;74.40;99336.53;5032414;28;20182;-78
2023/03/04 09:27:18;;;;;;;34.93;24.30;;;;;;;11.57;75.08;99317.06;5021699;28;20221;-79
2023/03/04 09:29:49;;;;;;;31.07;24.07;;;;;;;11.71;74.62;99329.97;5037270;28;20190;-81
2023/03/04 09:32:18;;;;;;;29.50;22.17;;;;;;;11.81;73.76;99330.25;5037853;28;20229;-79
2023/03/04 09:34:50;;;;;;;30.93;23.43;;;;;;;11.86;73.70;99324.19;5015416;28;20197;-79
2023/03/04 09:37:17;;;;;;;31.43;22.87;;;;;;;11.88;73.13;99336.34;5032255;28;20202;-81
2023/03/04 09:39:50;;;;;;;31.40;22.87;;;;;;;11.92;73.03;99328.63;5033068;28;20194;-80
2023/03/04 09:42:27;;;;;;;30.13;22.50;;;;;;;12.03;72.54;99325.09;5040642;28;20205;-80
2023/03/04 09:44:56;;;;;;;29.43;21.67;;;;;;;12.14;72.03;99320.75;5000328;28;20288;-79
2023/03/04 09:47:29;;;;;;;29.97;22.40;;;;;;;12.17;71.04;99339.09;5018709;28;20248;-79
2023/03/04 09:50:15;;;;;;;33.40;22.17;;;;;;;12.17;70.98;99312.22;5016104;28;20228;-82
2023/03/04 09:53:12;;;;;;;29.47;22.10;;;;;;;12.32;70.61;99309.84;5035390;28;20194;-79
2023/03/04 09:55:46;;;;;;;29.53;22.60;;;;;;;12.31;70.39;99309.03;5029684;28;20202;-79
2023/03/04 09:58:20;;;;;;;29.80;22.70;;;;;;;12.21;69.34;99300.78;4996234;28;20201;-79
2023/03/04 10:00:56;;;;;;;29.77;22.10;;;;;;;12.30;69.83;99312.78;5031114;28;20216;-78
2023/03/04 10:03:32;;;;;;;27.43;21.60;;;;;;;12.50;70.11;99309.69;4999414;28;20222;-80
2023/03/04 10:06:03;;;;;;;26.67;21.07;;;;;;;12.60;69.05;99301.78;5030822;28;20249;-79
2023/03/04 10:09:02;;;;;;;27.63;21.10;;;;;;;12.65;67.98;99306.44;5013730;28;20206;-80
2023/03/04 10:11:41;;;;;;;29.40;21.43;;;;;;;12.78;68.87;99306.16;5021988;28;20233;-78
2023/03/04 10:14:50;;;;;;;27.80;21.10;;;;;;;12.99;69.19;99292.00;5027029;28;20220;-78
2023/03/04 10:17:28;;;;;;;23.70;20.07;;;;;;;12.91;67.18;99286.22;5017510;28;20635;-78
2023/03/04 10:20:18;;;;;;;25.10;20.37;;;;;;;12.89;67.08;99286.44;5031710;28;20259;-78
2023/03/04 10:22:52;;;;;;;27.60;20.33;;;;;;;12.94;67.03;99283.03;5024205;28;20202;-78
2023/03/04 10:25:26;;;;;;;27.63;20.67;;;;;;;12.97;66.61;99287.94;4999305;28;20194;-80
2023/03/04 10:28:03;;;;;;;26.03;20.13;;;;;;;12.87;67.35;99285.91;5014140;28;20193;-78
2023/03/04 10:30:54;;;;;;;28.13;20.80;;;;;;;12.86;66.89;99280.75;5000221;28;20658;-78
2023/03/04 10:33:26;;;;;;;28.27;21.30;;;;;;;13.08;66.58;99273.59;5034184;28;20198;-78
2023/03/04 10:36:24;;;;;;;26.30;20.77;;;;;;;12.84;66.27;99274.78;5035714;28;20198;-79
2023/03/04 10:38:59;;;;;;;28.10;19.37;;;;;;;12.89;66.25;99270.31;5037588;28;20671;-79
2023/03/04 10:41:28;;;;;;;28.53;19.10;;;;;;;12.68;65.18;99263.78;5036744;28;20251;-78
2023/03/04 10:44:07;;;;;;;26.33;20.03;;;;;;;12.81;65.83;99292.22;5038077;28;20213;-79
2023/03/04 10:46:45;;;;;;;28.30;21.40;;;;;;;12.77;65.95;99258.84;5019197;28;20214;-79
2023/03/04 10:49:18;;;;;;;30.70;21.17;;;;;;;12.78;65.58;99250.50;5037459;28;20198;-78
2023/03/04 10:52:01;;;;;;;27.67;21.00;;;;;;;12.77;65.03;99267.72;5005100;28;20262;-79
2023/03/04 10:54:46;;;;;;;26.83;20.77;;;;;;;12.73;65.41;99246.94;5035553;28;20194;-79
2023/03/04 10:57:39;;;;;;;26.47;20.47;;;;;;;12.75;65.30;99251.00;5014394;28;20207;-80
2023/03/04 11:00:30;;;;;;;28.90;22.20;;;;;;;12.66;64.85;99239.00;5034480;28;20225;-79
2023/03/04 11:03:34;;;;;;;28.03;21.20;;;;;;;12.81;65.01;99241.16;5001900;28;20233;-79
2023/03/04 11:06:10;;;;;;;30.10;22.37;;;;;;;12.65;64.62;99236.56;5020101;28;20225;-79
2023/03/04 11:08:58;;;;;;;31.27;21.73;;;;;;;12.60;64.70;99233.78;5037102;28;20195;-78
2023/03/04 11:11:45;;;;;;;31.23;22.97;;;;;;;12.47;64.47;99229.53;5020974;28;20229;-78
2023/03/04 11:14:37;;;;;;;33.30;24.03;;;;;;;12.23;64.98;99241.44;5018800;28;20212;-79
2023/03/04 11:17:28;;;;;;;33.17;24.00;;;;;;;12.18;65.15;99241.34;5034149;28;20194;-78
2023/03/04 11:20:29;;;;;;;31.83;23.23;;;;;;;12.29;64.76;99235.94;5018313;28;20206;-79
2023/03/04 11:23:11;;;;;;;29.97;22.60;;;;;;;12.27;64.44;99247.97;5033925;28;20196;-79
2023/03/04 11:25:46;;;;;;;31.17;23.37;;;;;;;12.38;64.82;99241.72;5036392;28;20190;-81
2023/03/04 11:28:28;;;;;;;30.63;21.50;;;;;;;12.26;64.39;99238.28;5023932;28;20647;-79
2023/03/04 11:31:09;;;;;;;33.77;22.87;;;;;;;12.43;64.18;99214.13;5023054;28;20197;-79
2023/03/04 11:33:46;;;;;;;28.80;22.70;;;;;;;12.50;63.42;99231.75;5023144;28;20218;-79
2023/03/04 11:36:22;;;;;;;31.13;22.63;;;;;;;12.55;62.37;99252.53;5039693;28;20202;-79
2023/03/04 11:38:54;;;;;;;28.27;21.50;;;;;;;12.45;62.44;99234.34;5042098;28;20268;-80